Rio Orinoco — V7VX7 — position and weather

sailwx.info

Track history (hours):
 
Tides and Currents Weather Stations Pressure Air Temp Water Temp Dewpoint Dewpoint Depression Visibility Wind Speed Wind Dir Waves Ship Positions

Rio Orinoco

Last reported at 2016-Jan-30 06:23 UTC. Time now 2016-Feb-07 08:36 UTC.
Position N 01°16' E 104°11'.
Warning: this ship's position is 8 days out of date.

Length 274 m; draft 15.9 m.

Type: Tanker. MMSI: 538004236.

Date/timePositionNaut miles runAvg speedWind from/ knotsBaromVisibWave heightAir tempDewpointWater temp
2016-Jan-30 06:23N 01°16' E 104°11'910.4
2016-Jan-30 05:33N 01°15' E 104°03'1010.4
2016-Jan-30 04:34N 01°12' E 103°53'10 9.7
2016-Jan-30 03:33N 01°07' E 103°44'8 8.3
2016-Jan-30 02:33N 01°05' E 103°36'4 4.0
2016-Jan-30 01:32N 01°09' E 103°35'0 0.1
2016-Jan-30 00:11N 01°09' E 103°35'0 0.0
2016-Jan-29 23:14N 01°09' E 103°35'0 0.1
2016-Jan-29 22:32N 01°09' E 103°35'0 0.1
2016-Jan-29 19:32N 01°09' E 103°35'0 0.0
2016-Jan-29 18:29N 01°09' E 103°35'0 0.1
2016-Jan-29 17:23N 01°09' E 103°35'0 0.2
2016-Jan-29 16:20N 01°09' E 103°35'0 0.0
2016-Jan-29 15:32N 01°09' E 103°35'0 0.1
2016-Jan-29 14:29N 01°09' E 103°35'0 0.0
2016-Jan-29 13:26N 01°09' E 103°35'0 0.0
2016-Jan-29 12:23N 01°09' E 103°35'0 0.0
2016-Jan-29 11:32N 01°09' E 103°35'  
2016-Jan-20 09:34N 01°11' E 103°40'9 8.6
2016-Jan-20 08:34N 01°11' E 103°48'7 6.9
2016-Jan-20 07:34N 01°14' E 103°54'  
Track history (hours):
 
Tides and Currents Weather Stations Pressure Air Temp Water Temp Dewpoint Dewpoint Depression Visibility Wind Speed Wind Dir Waves Ship Positions

Rio Orinoco

Last reported at 2016-Jan-30 06:23 UTC. Time now 2016-Feb-07 08:36 UTC.
Position N 01°16' E 104°11'.
Warning: this ship's position is 8 days out of date.

Length 274 m; draft 15.9 m.

Type: Tanker. MMSI: 538004236.

Date/timePositionNaut miles runAvg speedWind from/ knotsBaromVisibWave heightAir tempDewpointWater temp
2016-Jan-30 06:23N 01°16' E 104°11'910.4
2016-Jan-30 05:33N 01°15' E 104°03'1010.4
2016-Jan-30 04:34N 01°12' E 103°53'10 9.7
2016-Jan-30 03:33N 01°07' E 103°44'8 8.3
2016-Jan-30 02:33N 01°05' E 103°36'4 4.0
2016-Jan-30 01:32N 01°09' E 103°35'0 0.1
2016-Jan-30 00:11N 01°09' E 103°35'0 0.0
2016-Jan-29 23:14N 01°09' E 103°35'0 0.1
2016-Jan-29 22:32N 01°09' E 103°35'0 0.1
2016-Jan-29 19:32N 01°09' E 103°35'0 0.0
2016-Jan-29 18:29N 01°09' E 103°35'0 0.1
2016-Jan-29 17:23N 01°09' E 103°35'0 0.2
2016-Jan-29 16:20N 01°09' E 103°35'0 0.0
2016-Jan-29 15:32N 01°09' E 103°35'0 0.1
2016-Jan-29 14:29N 01°09' E 103°35'0 0.0
2016-Jan-29 13:26N 01°09' E 103°35'0 0.0
2016-Jan-29 12:23N 01°09' E 103°35'0 0.0
2016-Jan-29 11:32N 01°09' E 103°35'  
2016-Jan-20 09:34N 01°11' E 103°40'9 8.6
2016-Jan-20 08:34N 01°11' E 103°48'7 6.9
2016-Jan-20 07:34N 01°14' E 103°54'  

Dump ship's entire track history